createdAt,value
2022-12-27T00:00:20.816Z,79.75
2022-12-27T00:03:23.705Z,79.95
2022-12-27T00:06:28.324Z,80.16
2022-12-27T00:09:31.249Z,80.22
2022-12-27T00:12:34.551Z,80.05
2022-12-27T00:15:37.333Z,80.17
2022-12-27T00:18:41.380Z,80.61
2022-12-27T00:21:45.183Z,80.31
2022-12-27T00:24:48.138Z,80.30
2022-12-27T00:27:50.911Z,80.23
2022-12-27T00:30:56.676Z,80.80
2022-12-27T00:34:01.700Z,81.59
2022-12-27T00:37:04.605Z,82.87
2022-12-27T00:40:08.106Z,83.05
2022-12-27T00:43:10.877Z,83.33
2022-12-27T00:46:14.706Z,83.63
2022-12-27T00:49:17.805Z,82.84
2022-12-27T00:52:20.724Z,82.85
2022-12-27T00:55:23.468Z,82.53
2022-12-27T00:58:26.744Z,82.91
2022-12-27T01:01:32.108Z,83.11
2022-12-27T01:04:35.099Z,82.69
2022-12-27T01:07:37.984Z,82.65
2022-12-27T01:10:41.565Z,82.89
2022-12-27T01:13:45.278Z,83.21
2022-12-27T01:16:48.266Z,83.27
2022-12-27T01:19:51.259Z,83.25
2022-12-27T01:22:54.749Z,82.83
2022-12-27T01:26:02.125Z,83.22
2022-12-27T01:29:05.416Z,83.44
2022-12-27T01:32:08.987Z,83.11
2022-12-27T01:35:11.818Z,83.49
2022-12-27T01:38:14.926Z,83.33
2022-12-27T01:41:49.819Z,83.32
2022-12-27T01:44:58.182Z,83.43
2022-12-27T01:48:05.887Z,83.31
2022-12-27T01:51:10.741Z,82.77
2022-12-27T01:54:13.488Z,82.79
2022-12-27T01:57:16.476Z,83.54
2022-12-27T02:00:19.650Z,83.58
2022-12-27T02:03:30.933Z,84.63
2022-12-27T02:06:36.454Z,84.73
2022-12-27T02:09:56.606Z,84.14
2022-12-27T02:13:01.100Z,85.11
2022-12-27T02:16:14.744Z,85.10
2022-12-27T02:20:01.094Z,85.62
2022-12-27T02:23:43.923Z,86.41
2022-12-27T02:26:46.762Z,86.56
2022-12-27T02:30:02.205Z,86.66
2022-12-27T02:33:09.983Z,86.25
2022-12-27T02:36:20.800Z,86.95
2022-12-27T02:39:25.118Z,87.01
2022-12-27T02:42:46.696Z,86.83
2022-12-27T02:46:32.182Z,86.63
2022-12-27T02:50:00.242Z,86.89
2022-12-27T02:53:18.695Z,87.07
2022-12-27T02:56:42.973Z,87.68
2022-12-27T03:00:23.464Z,88.14
2022-12-27T03:03:55.134Z,88.21
2022-12-27T03:07:19.451Z,87.74
2022-12-27T03:10:49.766Z,87.91
2022-12-27T03:14:37.071Z,88.06
2022-12-27T03:17:52.248Z,87.63
2022-12-27T03:21:16.516Z,88.24
2022-12-27T03:24:42.690Z,88.53
2022-12-27T03:28:08.730Z,88.80
2022-12-27T03:31:39.082Z,88.29
2022-12-27T03:34:50.836Z,88.54
2022-12-27T03:38:05.827Z,88.76
2022-12-27T03:41:30.235Z,88.87
2022-12-27T03:44:33.374Z,88.52
2022-12-27T03:47:39.186Z,88.35
2022-12-27T03:50:54.776Z,88.56
2022-12-27T03:54:06.777Z,88.64
2022-12-27T03:57:13.351Z,89.15
2022-12-27T04:00:16.427Z,90.15
2022-12-27T04:03:19.567Z,90.27
2022-12-27T04:06:22.467Z,91.28
2022-12-27T04:09:43.718Z,91.62
2022-12-27T04:13:04.813Z,91.52
2022-12-27T04:16:26.136Z,91.97
2022-12-27T04:19:48.251Z,92.19
2022-12-27T04:23:09.991Z,93.20
2022-12-27T04:26:31.288Z,94.12
2022-12-27T04:29:52.676Z,95.17
2022-12-27T04:33:13.999Z,95.27
2022-12-27T04:36:16.833Z,94.77
2022-12-27T04:39:25.545Z,94.34
2022-12-27T04:42:46.829Z,94.23
2022-12-27T04:46:08.086Z,93.63
2022-12-27T04:49:44.679Z,92.71
2022-12-27T04:53:26.149Z,92.88
2022-12-27T04:56:28.937Z,93.53
2022-12-27T04:59:50.775Z,93.29
2022-12-27T05:02:54.233Z,92.95
2022-12-27T05:05:57.041Z,92.98
2022-12-27T05:09:23.052Z,93.00
2022-12-27T05:12:44.337Z,93.78
2022-12-27T05:15:48.547Z,94.03
2022-12-27T05:18:52.735Z,93.53
2022-12-27T05:22:14.420Z,93.18
2022-12-27T05:25:35.476Z,93.55
2022-12-27T05:28:38.293Z,92.83
2022-12-27T05:31:41.248Z,92.01
2022-12-27T05:34:44.242Z,92.48
2022-12-27T05:37:53.102Z,92.79
2022-12-27T05:40:59.744Z,93.12
2022-12-27T05:44:07.182Z,93.60
2022-12-27T05:47:10.494Z,93.78
2022-12-27T05:50:13.809Z,92.91
2022-12-27T05:53:16.735Z,93.47
2022-12-27T05:56:21.726Z,93.22
2022-12-27T05:59:24.518Z,93.79
2022-12-27T06:02:27.479Z,93.96
2022-12-27T06:05:30.368Z,94.32
2022-12-27T06:08:33.454Z,93.81
2022-12-27T06:11:36.456Z,94.63
2022-12-27T06:14:39.175Z,93.99
2022-12-27T06:17:44.190Z,94.10
2022-12-27T06:20:47.004Z,94.62
2022-12-27T06:23:50.259Z,95.12
2022-12-27T06:26:53.081Z,95.09
2022-12-27T06:29:55.799Z,94.63
2022-12-27T06:32:58.621Z,94.96
2022-12-27T06:36:16.128Z,94.78
2022-12-27T06:39:19.279Z,94.19
2022-12-27T06:42:22.020Z,94.33
2022-12-27T06:45:24.748Z,94.78
2022-12-27T06:48:28.330Z,94.46
2022-12-27T06:51:31.068Z,94.26
2022-12-27T06:54:33.811Z,94.50
2022-12-27T06:57:36.563Z,94.27
2022-12-27T07:00:40.436Z,94.25
2022-12-27T07:03:43.681Z,94.63
2022-12-27T07:06:46.464Z,94.26
2022-12-27T07:09:49.432Z,94.12
2022-12-27T07:12:53.396Z,94.37
2022-12-27T07:15:56.424Z,94.42
2022-12-27T07:18:59.884Z,94.02
2022-12-27T07:22:02.670Z,92.79
2022-12-27T07:25:06.298Z,92.39
2022-12-27T07:28:09.060Z,91.71
2022-12-27T07:31:15.477Z,91.70
2022-12-27T07:34:18.527Z,91.30
2022-12-27T07:37:21.335Z,90.90
2022-12-27T07:40:24.150Z,90.76
2022-12-27T07:43:30.357Z,89.83
2022-12-27T07:46:34.323Z,89.90
2022-12-27T07:49:37.184Z,89.13
2022-12-27T07:52:39.944Z,89.46
2022-12-27T07:55:43.127Z,88.86
2022-12-27T07:58:48.622Z,88.38
2022-12-27T08:02:06.819Z,87.92
2022-12-27T08:05:11.035Z,87.90
2022-12-27T08:08:19.913Z,87.21
2022-12-27T08:11:23.424Z,86.59
2022-12-27T08:14:26.241Z,86.85
2022-12-27T08:17:31.111Z,86.48
2022-12-27T08:20:33.909Z,85.63
2022-12-27T08:23:36.839Z,82.35
2022-12-27T08:26:39.723Z,76.01
2022-12-27T08:29:45.359Z,67.59
2022-12-27T08:32:48.419Z,60.14
2022-12-27T08:35:54.313Z,55.01
2022-12-27T08:38:57.682Z,50.87
2022-12-27T08:42:01.525Z,45.76
2022-12-27T08:45:04.607Z,46.38
2022-12-27T08:48:07.790Z,44.44
2022-12-27T08:51:14.541Z,41.00
2022-12-27T08:54:20.052Z,40.21
2022-12-27T08:57:23.076Z,36.98
2022-12-27T09:00:27.845Z,36.85
2022-12-27T09:03:31.422Z,38.97
2022-12-27T09:06:34.583Z,34.49
2022-12-27T09:09:37.356Z,35.92
2022-12-27T09:12:40.406Z,31.94
2022-12-27T09:15:44.210Z,31.25
2022-12-27T09:18:53.120Z,30.75
2022-12-27T09:21:55.928Z,30.33
2022-12-27T09:24:59.241Z,31.42
2022-12-27T09:28:02.378Z,33.55
2022-12-27T09:31:06.144Z,35.30
2022-12-27T09:34:13.063Z,30.25
2022-12-27T09:37:17.544Z,29.28
2022-12-27T09:40:21.664Z,28.54
2022-12-27T09:43:58.407Z,30.70
2022-12-27T09:47:11.285Z,34.14
2022-12-27T09:50:20.382Z,36.64
2022-12-27T09:53:23.122Z,38.92
2022-12-27T09:56:47.430Z,33.67
2022-12-27T09:59:59.449Z,31.56
2022-12-27T10:03:06.029Z,31.09
2022-12-27T10:06:27.163Z,27.80
2022-12-27T10:09:40.049Z,26.11
2022-12-27T10:13:20.535Z,31.27
2022-12-27T10:16:36.799Z,29.01
2022-12-27T10:19:57.539Z,28.91
2022-12-27T10:23:11.906Z,29.06
2022-12-27T10:26:18.669Z,26.88
2022-12-27T10:29:26.389Z,29.66
2022-12-27T10:32:29.340Z,31.13
2022-12-27T10:35:32.321Z,26.96
2022-12-27T10:38:36.039Z,29.30
2022-12-27T10:42:05.721Z,27.18
2022-12-27T10:45:32.478Z,34.29
2022-12-27T10:49:10.869Z,36.04
2022-12-27T10:52:10.982Z,38.55
2022-12-27T10:55:33.667Z,39.91
2022-12-27T10:58:52.896Z,40.63
2022-12-27T11:02:02.941Z,38.64
2022-12-27T11:05:23.418Z,38.23
2022-12-27T11:08:26.476Z,35.11
2022-12-27T11:11:30.013Z,33.56
2022-12-27T11:14:32.932Z,34.32
2022-12-27T11:17:44.038Z,35.68
2022-12-27T11:20:53.530Z,36.23
2022-12-27T11:24:02.012Z,36.28
2022-12-27T11:27:05.240Z,37.08
2022-12-27T11:30:23.901Z,36.74
2022-12-27T11:33:49.390Z,37.64
2022-12-27T11:36:56.388Z,38.38
2022-12-27T11:40:23.832Z,38.17
2022-12-27T11:43:32.665Z,39.72
2022-12-27T11:46:59.484Z,40.28
2022-12-27T11:50:33.878Z,40.68
2022-12-27T11:53:56.524Z,41.95
2022-12-27T11:57:14.700Z,42.54
2022-12-27T12:00:24.923Z,43.35
2022-12-27T12:03:45.012Z,41.22
2022-12-27T12:07:05.171Z,39.84
2022-12-27T12:10:28.369Z,39.71
2022-12-27T12:13:54.328Z,38.94
2022-12-27T12:17:24.001Z,38.26
2022-12-27T12:20:56.168Z,36.49
2022-12-27T12:24:15.092Z,36.95
2022-12-27T12:27:25.450Z,34.76
2022-12-27T12:30:56.538Z,35.14
2022-12-27T12:34:15.087Z,35.14
2022-12-27T12:37:42.725Z,37.45
2022-12-27T12:41:14.250Z,37.92
2022-12-27T12:44:23.214Z,38.25
2022-12-27T12:47:53.088Z,38.04
2022-12-27T12:51:11.315Z,38.33
2022-12-27T12:54:41.400Z,38.87
2022-12-27T12:57:58.471Z,38.35
2022-12-27T13:01:02.900Z,38.77
2022-12-27T13:04:32.349Z,39.40
2022-12-27T13:08:11.190Z,40.03
2022-12-27T13:11:49.285Z,40.08
2022-12-27T13:15:06.615Z,39.68
2022-12-27T13:18:30.613Z,40.67
2022-12-27T13:22:05.695Z,39.55
2022-12-27T13:25:11.774Z,40.68
2022-12-27T13:28:23.883Z,39.84
2022-12-27T13:31:51.718Z,40.71
2022-12-27T13:35:20.154Z,40.90
2022-12-27T13:39:00.738Z,40.97
2022-12-27T13:42:25.658Z,41.06
2022-12-27T13:45:49.825Z,41.26
2022-12-27T13:49:01.749Z,40.95
2022-12-27T13:52:23.808Z,41.56
2022-12-27T13:55:37.948Z,41.27
2022-12-27T13:58:57.799Z,41.00
2022-12-27T14:02:36.560Z,42.47
2022-12-27T14:05:58.223Z,42.63
2022-12-27T14:09:37.953Z,41.63
2022-12-27T14:13:00.344Z,42.13
2022-12-27T14:16:24.921Z,42.24
2022-12-27T14:19:40.006Z,42.67
2022-12-27T14:23:20.116Z,42.69
2022-12-27T14:26:47.240Z,43.23
2022-12-27T14:30:17.912Z,43.18
2022-12-27T14:33:42.587Z,43.36
2022-12-27T14:36:54.421Z,43.84
2022-12-27T14:40:28.722Z,44.57
2022-12-27T14:43:58.920Z,44.04
2022-12-27T14:47:32.834Z,44.75
2022-12-27T14:51:50.429Z,46.07
2022-12-27T14:55:04.883Z,46.71
2022-12-27T14:58:49.977Z,47.09
2022-12-27T15:02:03.987Z,47.32
2022-12-27T15:05:07.423Z,48.63
2022-12-27T15:08:30.584Z,49.81
2022-12-27T15:12:12.276Z,50.52
2022-12-27T15:15:18.074Z,52.02
2022-12-27T15:19:03.017Z,53.99
2022-12-27T15:22:08.902Z,56.04
2022-12-27T15:25:20.808Z,56.98
2022-12-27T15:28:43.522Z,55.92
2022-12-27T15:31:46.259Z,56.46
2022-12-27T15:34:49.161Z,55.52
2022-12-27T15:38:04.537Z,55.48
2022-12-27T15:41:07.591Z,55.76
2022-12-27T15:44:45.498Z,55.23
2022-12-27T15:48:25.617Z,55.04
2022-12-27T15:52:09.802Z,54.50
2022-12-27T15:55:24.673Z,53.50
2022-12-27T15:58:29.123Z,53.90
2022-12-27T16:01:35.054Z,53.65
2022-12-27T16:04:54.080Z,52.22
2022-12-27T16:07:59.980Z,52.18
2022-12-27T16:11:05.588Z,51.92
2022-12-27T16:14:39.023Z,52.04
2022-12-27T16:18:28.080Z,51.61
2022-12-27T16:21:44.506Z,51.66
2022-12-27T16:24:47.426Z,52.27
2022-12-27T16:27:59.955Z,52.25
2022-12-27T16:31:07.782Z,52.80
2022-12-27T16:34:24.187Z,53.11
2022-12-27T16:37:40.230Z,54.17
2022-12-27T16:40:57.070Z,54.55
2022-12-27T16:43:59.813Z,54.94
2022-12-27T16:47:08.225Z,53.72
2022-12-27T16:50:30.297Z,54.78
2022-12-27T16:54:04.918Z,54.43
2022-12-27T16:57:25.988Z,53.79
2022-12-27T17:00:44.035Z,53.48
2022-12-27T17:03:49.302Z,52.91
2022-12-27T17:06:56.172Z,53.44
2022-12-27T17:10:27.808Z,52.33
2022-12-27T17:13:35.717Z,52.87
2022-12-27T17:16:47.646Z,53.27
2022-12-27T17:20:17.809Z,51.70
2022-12-27T17:23:20.767Z,51.61
2022-12-27T17:27:01.030Z,51.74
2022-12-27T17:30:36.201Z,50.93
2022-12-27T17:33:56.394Z,51.99
2022-12-27T17:37:13.637Z,52.22
2022-12-27T17:41:02.688Z,52.13
2022-12-27T17:44:33.999Z,53.80
2022-12-27T17:48:05.024Z,54.17
2022-12-27T17:51:15.240Z,53.52
2022-12-27T17:54:43.997Z,54.42
2022-12-27T17:57:55.180Z,53.64
2022-12-27T18:01:02.134Z,54.53
2022-12-27T18:04:06.255Z,54.31
2022-12-27T18:07:13.221Z,56.65
2022-12-27T18:10:24.346Z,56.11
2022-12-27T18:13:31.658Z,56.35
2022-12-27T18:16:40.119Z,56.14
2022-12-27T18:19:43.182Z,56.31
2022-12-27T18:22:46.148Z,56.71
2022-12-27T18:25:55.935Z,57.40
2022-12-27T18:28:59.352Z,57.16
2022-12-27T18:32:09.328Z,57.68
2022-12-27T18:35:24.123Z,57.81
2022-12-27T18:38:35.101Z,57.88
2022-12-27T18:41:45.126Z,58.09
2022-12-27T18:44:57.074Z,57.54
2022-12-27T18:48:02.102Z,58.28
2022-12-27T18:51:05.431Z,58.98
2022-12-27T18:54:29.976Z,58.89
2022-12-27T18:57:36.016Z,58.39
2022-12-27T19:01:29.455Z,58.61
2022-12-27T19:04:33.839Z,58.70
2022-12-27T19:07:36.605Z,59.03
2022-12-27T19:10:48.465Z,58.81
2022-12-27T19:13:58.688Z,59.74
2022-12-27T19:17:08.686Z,58.74
2022-12-27T19:20:34.938Z,59.35
2022-12-27T19:23:43.218Z,60.14
2022-12-27T19:26:46.059Z,60.00
2022-12-27T19:29:51.725Z,60.13
2022-12-27T19:32:54.478Z,60.87
2022-12-27T19:35:57.550Z,60.53
2022-12-27T19:39:00.979Z,61.18
2022-12-27T19:42:07.126Z,61.11
2022-12-27T19:45:15.436Z,62.35
2022-12-27T19:48:18.441Z,62.11
2022-12-27T19:51:21.409Z,62.30
2022-12-27T19:54:27.510Z,63.40
2022-12-27T19:57:31.399Z,64.31
2022-12-27T20:00:34.392Z,64.87
2022-12-27T20:03:37.407Z,67.19
2022-12-27T20:06:41.341Z,68.66
2022-12-27T20:09:44.435Z,69.00
2022-12-27T20:12:47.252Z,69.60
2022-12-27T20:15:51.793Z,71.81
2022-12-27T20:18:54.998Z,73.86
2022-12-27T20:21:57.834Z,74.07
2022-12-27T20:25:00.626Z,73.81
2022-12-27T20:28:04.163Z,74.90
2022-12-27T20:31:09.626Z,74.84
2022-12-27T20:34:13.236Z,74.77
2022-12-27T20:37:21.157Z,75.24
2022-12-27T20:40:27.747Z,74.59
2022-12-27T20:43:30.711Z,75.05
2022-12-27T20:46:33.671Z,75.52
2022-12-27T20:49:36.596Z,76.40
2022-12-27T20:52:39.748Z,76.65
2022-12-27T20:55:42.701Z,76.34
2022-12-27T20:58:45.571Z,75.59
2022-12-27T21:01:53.094Z,76.14
2022-12-27T21:04:59.919Z,76.55
2022-12-27T21:08:02.924Z,77.27
2022-12-27T21:11:07.932Z,76.36
2022-12-27T21:14:12.486Z,75.28
2022-12-27T21:17:15.786Z,75.48
2022-12-27T21:20:18.821Z,76.36
2022-12-27T21:23:21.574Z,75.98
2022-12-27T21:26:30.105Z,75.44
2022-12-27T21:29:32.968Z,73.83
2022-12-27T21:32:35.901Z,74.06
2022-12-27T21:35:38.874Z,74.61
2022-12-27T21:38:42.128Z,73.41
2022-12-27T21:41:45.372Z,72.87
2022-12-27T21:44:48.262Z,71.58
2022-12-27T21:47:51.614Z,72.39
2022-12-27T21:50:54.403Z,72.68
2022-12-27T21:53:57.819Z,73.57
2022-12-27T21:57:00.668Z,73.58
2022-12-27T22:00:04.596Z,73.71
2022-12-27T22:03:07.929Z,73.54
2022-12-27T22:06:15.943Z,73.47
2022-12-27T22:09:19.560Z,73.34
2022-12-27T22:12:22.576Z,73.43
2022-12-27T22:15:25.341Z,74.39
2022-12-27T22:18:37.282Z,75.28
2022-12-27T22:21:41.325Z,75.21
2022-12-27T22:24:44.337Z,75.20
2022-12-27T22:27:47.084Z,76.28
2022-12-27T22:30:49.908Z,76.55
2022-12-27T22:33:53.199Z,76.53
2022-12-27T22:36:56.301Z,77.08
2022-12-27T22:39:59.242Z,78.05
2022-12-27T22:43:02.272Z,78.03
2022-12-27T22:46:10.360Z,78.36
2022-12-27T22:49:13.287Z,79.19
2022-12-27T22:52:16.036Z,80.13
2022-12-27T22:55:18.820Z,80.08
2022-12-27T22:58:21.670Z,78.70
2022-12-27T23:01:28.022Z,79.72
2022-12-27T23:04:31.042Z,79.48
2022-12-27T23:08:04.789Z,78.36
2022-12-27T23:11:03.712Z,77.12
2022-12-27T23:14:12.431Z,76.93
2022-12-27T23:17:15.231Z,76.68
2022-12-27T23:20:18.072Z,77.20
2022-12-27T23:23:21.597Z,77.48
2022-12-27T23:26:24.450Z,77.48
2022-12-27T23:29:27.209Z,76.46
2022-12-27T23:32:29.984Z,76.00
2022-12-27T23:35:34.518Z,74.73
2022-12-27T23:38:37.762Z,74.29
2022-12-27T23:41:40.857Z,74.03
2022-12-27T23:44:43.671Z,73.03
2022-12-27T23:47:46.574Z,72.71
2022-12-27T23:50:49.332Z,72.74
2022-12-27T23:53:52.370Z,73.30
2022-12-27T23:56:55.169Z,73.49
2022-12-27T23:59:58.293Z,73.97
